createdAt,value
2023-04-03T00:00:59.540Z,102809.63
2023-04-03T00:03:26.521Z,102807.09
2023-04-03T00:05:53.479Z,102814.22
2023-04-03T00:08:21.153Z,102803.63
2023-04-03T00:10:48.228Z,102812.53
2023-04-03T00:13:15.903Z,102810.84
2023-04-03T00:15:43.359Z,102810.03
2023-04-03T00:18:10.821Z,102802.09
2023-04-03T00:20:38.334Z,102802.97
2023-04-03T00:23:05.645Z,102796.94
2023-04-03T00:25:32.668Z,102794.28
2023-04-03T00:27:59.843Z,102791.72
2023-04-03T00:30:27.226Z,102790.97
2023-04-03T00:32:54.278Z,102784.88
2023-04-03T00:35:23.174Z,102792.00
2023-04-03T00:37:53.969Z,102794.66
2023-04-03T00:40:22.205Z,102792.09
2023-04-03T00:42:50.666Z,102794.78
2023-04-03T00:45:39.174Z,102798.34
2023-04-03T00:48:11.397Z,102803.69
2023-04-03T00:50:42.376Z,102806.34
2023-04-03T00:53:15.885Z,102802.94
2023-04-03T00:55:43.393Z,102809.13
2023-04-03T00:58:12.207Z,102805.59
2023-04-03T01:00:44.638Z,102806.63
2023-04-03T01:03:11.569Z,102811.94
2023-04-03T01:05:39.089Z,102809.34
2023-04-03T01:08:06.550Z,102806.72
2023-04-03T01:10:33.527Z,102809.38
2023-04-03T01:13:01.786Z,102803.31
2023-04-03T01:15:34.221Z,102806.84
2023-04-03T01:18:02.089Z,102800.69
2023-04-03T01:20:38.483Z,102802.56
2023-04-03T01:23:12.115Z,102799.03
2023-04-03T01:25:52.297Z,102794.53
2023-04-03T01:28:32.306Z,102792.78
2023-04-03T01:31:20.635Z,102787.50
2023-04-03T01:33:48.114Z,102791.97
2023-04-03T01:36:18.675Z,102788.44
2023-04-03T01:38:45.695Z,102791.09
2023-04-03T01:41:12.666Z,102786.69
2023-04-03T01:43:39.668Z,102779.59
2023-04-03T01:46:06.762Z,102783.16
2023-04-03T01:48:33.900Z,102776.06
2023-04-03T01:51:00.828Z,102781.44
2023-04-03T01:53:28.015Z,102777.84
2023-04-03T01:55:54.952Z,102772.53
2023-04-03T01:58:22.012Z,102774.31
2023-04-03T02:00:49.625Z,102784.91
2023-04-03T02:03:16.756Z,102783.13
2023-04-03T02:05:43.745Z,102778.69
2023-04-03T02:08:10.690Z,102776.94
2023-04-03T02:10:37.866Z,102773.44
2023-04-03T02:13:04.959Z,102769.91
2023-04-03T02:15:31.978Z,102768.13
2023-04-03T02:17:58.937Z,102768.09
2023-04-03T02:20:25.960Z,102769.88
2023-04-03T02:22:52.870Z,102766.28
2023-04-03T02:25:19.852Z,102774.25
2023-04-03T02:27:46.764Z,102768.09
2023-04-03T02:30:15.940Z,102753.91
2023-04-03T02:32:43.862Z,102762.72
2023-04-03T02:35:11.984Z,102762.72
2023-04-03T02:37:39.012Z,102761.78
2023-04-03T02:40:07.395Z,102753.88
2023-04-03T02:42:34.516Z,102763.56
2023-04-03T02:45:04.843Z,102756.53
2023-04-03T02:47:31.880Z,102753.84
2023-04-03T02:49:58.891Z,102756.47
2023-04-03T02:52:26.168Z,102757.28
2023-04-03T02:54:53.127Z,102752.88
2023-04-03T02:57:21.149Z,102742.31
2023-04-03T02:59:48.154Z,102744.09
2023-04-03T03:02:15.060Z,102737.91
2023-04-03T03:04:42.091Z,102742.31
2023-04-03T03:07:09.062Z,102741.50
2023-04-03T03:09:36.019Z,102735.34
2023-04-03T03:12:02.986Z,102740.63
2023-04-03T03:14:29.946Z,102742.44
2023-04-03T03:16:56.849Z,102737.09
2023-04-03T03:19:23.801Z,102734.41
2023-04-03T03:21:51.513Z,102737.91
2023-04-03T03:24:18.578Z,102732.63
2023-04-03T03:26:45.820Z,102733.56
2023-04-03T03:29:12.740Z,102723.78
2023-04-03T03:31:39.758Z,102734.38
2023-04-03T03:34:06.832Z,102729.94
2023-04-03T03:36:33.798Z,102731.66
2023-04-03T03:39:00.766Z,102727.22
2023-04-03T03:41:27.745Z,102727.22
2023-04-03T03:43:54.715Z,102724.53
2023-04-03T03:46:21.755Z,102724.50
2023-04-03T03:48:48.792Z,102722.75
2023-04-03T03:51:15.731Z,102728.03
2023-04-03T03:53:42.716Z,102718.25
2023-04-03T03:56:09.747Z,102722.72
2023-04-03T03:58:37.002Z,102716.47
2023-04-03T04:01:07.041Z,102717.34
2023-04-03T04:03:34.390Z,102719.13
2023-04-03T04:06:01.554Z,102721.75
2023-04-03T04:08:28.721Z,102730.59
2023-04-03T04:10:55.999Z,102722.63
2023-04-03T04:13:23.051Z,102720.88
2023-04-03T04:15:50.107Z,102719.94
2023-04-03T04:18:17.160Z,102723.47
2023-04-03T04:20:46.693Z,102718.19
2023-04-03T04:23:13.640Z,102735.84
2023-04-03T04:25:40.589Z,102734.97
2023-04-03T04:28:07.767Z,102728.78
2023-04-03T04:30:34.693Z,102735.84
2023-04-03T04:33:02.330Z,102731.41
2023-04-03T04:35:29.384Z,102727.81
2023-04-03T04:37:56.580Z,102722.53
2023-04-03T04:40:23.652Z,102726.03
2023-04-03T04:42:50.644Z,102726.97
2023-04-03T04:45:17.895Z,102730.44
2023-04-03T04:47:45.107Z,102730.44
2023-04-03T04:50:12.885Z,102728.69
2023-04-03T04:52:40.400Z,102735.78
2023-04-03T04:55:07.834Z,102740.25
2023-04-03T04:57:34.982Z,102742.91
2023-04-03T05:00:02.093Z,102737.59
2023-04-03T05:02:29.087Z,102737.59
2023-04-03T05:04:56.287Z,102735.78
2023-04-03T05:07:23.902Z,102735.78
2023-04-03T05:09:50.827Z,102739.31
2023-04-03T05:12:18.439Z,102734.00
2023-04-03T05:14:45.370Z,102728.69
2023-04-03T05:17:12.289Z,102736.66
2023-04-03T05:19:39.397Z,102731.34
2023-04-03T05:22:06.539Z,102731.34
2023-04-03T05:24:33.463Z,102731.34
2023-04-03T05:27:00.675Z,102739.31
2023-04-03T05:29:27.726Z,102740.19
2023-04-03T05:31:54.772Z,102736.63
2023-04-03T05:34:21.865Z,102749.81
2023-04-03T05:36:48.841Z,102744.53
2023-04-03T05:39:15.988Z,102741.84
2023-04-03T05:41:42.911Z,102735.59
2023-04-03T05:44:09.916Z,102734.72
2023-04-03T05:46:37.175Z,102737.38
2023-04-03T05:49:04.762Z,102727.72
2023-04-03T05:51:38.537Z,102733.91
2023-04-03T05:54:20.308Z,102721.44
2023-04-03T05:56:47.440Z,102723.16
2023-04-03T05:59:14.459Z,102725.63
2023-04-03T06:01:41.916Z,102719.28
2023-04-03T06:04:10.421Z,102716.50
2023-04-03T06:06:54.247Z,102717.28
2023-04-03T06:09:23.474Z,102708.34
2023-04-03T06:11:50.657Z,102712.66
2023-04-03T06:14:17.756Z,102716.13
2023-04-03T06:16:45.073Z,102713.41
2023-04-03T06:19:13.464Z,102719.53
2023-04-03T06:21:40.944Z,102720.41
2023-04-03T06:24:08.709Z,102715.91
2023-04-03T06:26:36.051Z,102715.88
2023-04-03T06:29:03.734Z,102712.25
2023-04-03T06:31:31.407Z,102720.16
2023-04-03T06:33:58.525Z,102714.00
2023-04-03T06:36:25.598Z,102714.00
2023-04-03T06:38:52.845Z,102716.06
2023-04-03T06:41:19.861Z,102718.25
2023-04-03T06:43:47.205Z,102716.00
2023-04-03T06:46:19.457Z,102718.97
2023-04-03T06:48:46.773Z,102716.63
2023-04-03T06:51:21.167Z,102722.72
2023-04-03T06:53:53.066Z,102719.22
2023-04-03T06:56:21.088Z,102716.31
2023-04-03T06:58:48.442Z,102714.44
2023-04-03T07:01:17.950Z,102720.25
2023-04-03T07:03:45.090Z,102720.81
2023-04-03T07:06:17.436Z,102725.09
2023-04-03T07:08:45.529Z,102720.47
2023-04-03T07:11:13.988Z,102722.19
2023-04-03T07:13:41.444Z,102722.09
2023-04-03T07:16:09.975Z,102723.22
2023-04-03T07:18:37.560Z,102712.63
2023-04-03T07:21:06.153Z,102725.47
2023-04-03T07:23:34.127Z,102732.13
2023-04-03T07:26:01.279Z,102724.06
2023-04-03T07:28:28.752Z,102730.09
2023-04-03T07:31:06.087Z,102727.91
2023-04-03T07:33:33.437Z,102727.31
2023-04-03T07:36:01.755Z,102734.28
2023-04-03T07:38:29.261Z,102732.97
2023-04-03T07:40:57.402Z,102737.09
2023-04-03T07:43:26.265Z,102732.34
2023-04-03T07:45:55.292Z,102724.75
2023-04-03T07:48:24.326Z,102722.41
2023-04-03T07:50:51.879Z,102734.38
2023-04-03T07:53:19.753Z,102726.91
2023-04-03T07:55:53.062Z,102724.00
2023-04-03T07:58:20.125Z,102724.56
2023-04-03T08:00:48.300Z,102731.41
2023-04-03T08:03:18.015Z,102731.16
2023-04-03T08:05:47.509Z,102736.19
2023-04-03T08:08:21.457Z,102735.06
2023-04-03T08:10:53.455Z,102737.38
2023-04-03T08:13:21.154Z,102736.22
2023-04-03T08:15:48.765Z,102730.56
2023-04-03T08:18:17.430Z,102733.75
2023-04-03T08:20:44.889Z,102734.75
2023-04-03T08:23:12.443Z,102735.06
2023-04-03T08:25:43.431Z,102739.41
2023-04-03T08:28:12.288Z,102731.31
2023-04-03T08:30:43.877Z,102734.28
2023-04-03T08:33:11.907Z,102726.53
2023-04-03T08:35:43.658Z,102730.16
2023-04-03T08:38:11.881Z,102727.34
2023-04-03T08:40:39.731Z,102730.69
2023-04-03T08:43:32.824Z,102732.25
2023-04-03T08:46:06.009Z,102733.63
2023-04-03T08:48:38.346Z,102733.63
2023-04-03T08:51:16.504Z,102730.44
2023-04-03T08:53:58.034Z,102723.38
2023-04-03T08:56:27.054Z,102721.13
2023-04-03T08:58:58.534Z,102720.66
2023-04-03T09:01:46.156Z,102722.09
2023-04-03T09:04:21.046Z,102713.88
2023-04-03T09:06:55.826Z,102713.63
2023-04-03T09:09:43.682Z,102707.28
2023-04-03T09:12:25.584Z,102705.34
2023-04-03T09:15:01.321Z,102712.31
2023-04-03T09:17:40.393Z,102709.50
2023-04-03T09:20:32.153Z,102704.97
2023-04-03T09:22:59.765Z,102717.09
2023-04-03T09:25:34.614Z,102706.38
2023-04-03T09:28:03.227Z,102704.44
2023-04-03T09:30:31.198Z,102699.06
2023-04-03T09:32:59.183Z,102691.97
2023-04-03T09:35:47.569Z,102691.00
2023-04-03T09:38:22.504Z,102680.06
2023-04-03T09:40:53.037Z,102680.81
2023-04-03T09:43:28.167Z,102675.38
2023-04-03T09:45:56.083Z,102671.81
2023-04-03T09:48:26.086Z,102676.94
2023-04-03T09:50:57.977Z,102675.28
2023-04-03T09:53:31.187Z,102681.41
2023-04-03T09:55:59.827Z,102666.75
2023-04-03T09:58:42.728Z,102674.53
2023-04-03T10:01:26.511Z,102664.09
2023-04-03T10:04:12.405Z,102678.44
2023-04-03T10:06:52.546Z,102674.63
2023-04-03T10:09:28.784Z,102670.75
2023-04-03T10:12:13.557Z,102672.25
2023-04-03T10:14:58.390Z,102672.06
2023-04-03T10:17:47.069Z,102671.81
2023-04-03T10:20:38.046Z,102660.19
2023-04-03T10:23:22.770Z,102659.28
2023-04-03T10:26:14.748Z,102662.50
2023-04-03T10:28:58.537Z,102656.28
2023-04-03T10:31:52.238Z,102652.38
2023-04-03T10:34:40.038Z,102655.91
2023-04-03T10:37:18.988Z,102654.91
2023-04-03T10:40:13.930Z,102651.25
2023-04-03T10:42:48.704Z,102651.97
2023-04-03T10:45:29.400Z,102643.53
2023-04-03T10:48:31.704Z,102651.59
2023-04-03T10:51:43.187Z,102641.88
2023-04-03T10:54:17.644Z,102651.38
2023-04-03T10:57:04.925Z,102645.88
2023-04-03T10:59:43.800Z,102642.91
2023-04-03T11:02:26.422Z,102642.56
2023-04-03T11:05:02.056Z,102642.31
2023-04-03T11:07:37.181Z,102640.47
2023-04-03T11:10:15.989Z,102644.66
2023-04-03T11:12:46.462Z,102642.75
2023-04-03T11:15:22.703Z,102640.91
2023-04-03T11:17:56.672Z,102641.63
2023-04-03T11:20:35.632Z,102631.69
2023-04-03T11:23:07.179Z,102631.59
2023-04-03T11:25:38.951Z,102624.34
2023-04-03T11:28:13.918Z,102623.28
2023-04-03T11:31:01.761Z,102626.56
2023-04-03T11:33:52.591Z,102627.38
2023-04-03T11:36:26.063Z,102609.63
2023-04-03T11:39:02.185Z,102612.94
2023-04-03T11:41:31.981Z,102615.50
2023-04-03T11:44:25.050Z,102609.16
2023-04-03T11:46:59.501Z,102603.72
2023-04-03T11:50:14.485Z,102605.38
2023-04-03T11:52:44.145Z,102604.34
2023-04-03T11:55:23.825Z,102605.22
2023-04-03T11:58:00.126Z,102602.69
2023-04-03T12:00:48.556Z,102587.50
2023-04-03T12:03:33.699Z,102600.63
2023-04-03T12:06:13.039Z,102589.88
2023-04-03T12:08:51.953Z,102586.25
2023-04-03T12:11:33.047Z,102589.69
2023-04-03T12:13:59.968Z,102583.53
2023-04-03T12:16:43.707Z,102587.38
2023-04-03T12:19:17.314Z,102579.66
2023-04-03T12:21:50.265Z,102570.69
2023-04-03T12:24:17.367Z,102572.28
2023-04-03T12:26:53.121Z,102570.50
2023-04-03T12:29:23.120Z,102567.34
2023-04-03T12:32:10.509Z,102566.25
2023-04-03T12:34:56.300Z,102558.31
2023-04-03T12:37:50.281Z,102552.31
2023-04-03T12:40:37.465Z,102557.88
2023-04-03T12:43:15.226Z,102557.31
2023-04-03T12:46:13.369Z,102547.81
2023-04-03T12:48:46.903Z,102546.97
2023-04-03T12:51:22.049Z,102546.19
2023-04-03T12:53:51.265Z,102549.16
2023-04-03T12:56:33.631Z,102538.53
2023-04-03T12:59:26.715Z,102535.97
2023-04-03T13:01:58.778Z,102538.13
2023-04-03T13:04:26.855Z,102532.22
2023-04-03T13:06:54.175Z,102538.72
2023-04-03T13:09:24.145Z,102521.81
2023-04-03T13:11:57.601Z,102521.38
2023-04-03T13:14:26.735Z,102516.72
2023-04-03T13:16:58.726Z,102510.06
2023-04-03T13:19:29.259Z,102505.69
2023-04-03T13:22:00.948Z,102506.59
2023-04-03T13:24:30.672Z,102496.41
2023-04-03T13:26:58.107Z,102492.47
2023-04-03T13:29:37.531Z,102489.84
2023-04-03T13:32:07.783Z,102490.78
2023-04-03T13:34:41.988Z,102487.34
2023-04-03T13:37:22.373Z,102488.38
2023-04-03T13:40:19.321Z,102493.69
2023-04-03T13:42:48.623Z,102490.34
2023-04-03T13:45:29.977Z,102487.69
2023-04-03T13:48:23.884Z,102499.00
2023-04-03T13:51:07.829Z,102487.00
2023-04-03T13:53:42.854Z,102493.41
2023-04-03T13:56:20.379Z,102477.78
2023-04-03T13:59:22.224Z,102477.94
2023-04-03T14:02:03.872Z,102480.53
2023-04-03T14:04:46.091Z,102472.00
2023-04-03T14:07:13.816Z,102470.31
2023-04-03T14:09:42.312Z,102465.91
2023-04-03T14:12:30.094Z,102455.38
2023-04-03T14:15:00.162Z,102452.72
2023-04-03T14:17:29.270Z,102457.25
2023-04-03T14:19:58.300Z,102448.59
2023-04-03T14:22:30.920Z,102447.13
2023-04-03T14:24:59.276Z,102445.38
2023-04-03T14:27:42.471Z,102443.81
2023-04-03T14:30:18.666Z,102439.31
2023-04-03T14:32:46.423Z,102432.50
2023-04-03T14:35:14.862Z,102434.56
2023-04-03T14:37:42.868Z,102431.13
2023-04-03T14:40:15.125Z,102429.47
2023-04-03T14:42:42.804Z,102430.59
2023-04-03T14:45:14.680Z,102413.88
2023-04-03T14:47:50.172Z,102421.94
2023-04-03T14:50:22.636Z,102416.56
2023-04-03T14:52:52.926Z,102413.19
2023-04-03T14:55:23.248Z,102411.59
2023-04-03T14:57:50.550Z,102407.28
2023-04-03T15:00:22.904Z,102402.19
2023-04-03T15:02:50.682Z,102393.31
2023-04-03T15:05:18.456Z,102402.00
2023-04-03T15:07:54.067Z,102395.84
2023-04-03T15:10:27.374Z,102403.09
2023-04-03T15:12:55.649Z,102400.34
2023-04-03T15:15:24.440Z,102396.78
2023-04-03T15:18:00.786Z,102385.28
2023-04-03T15:20:33.173Z,102391.69
2023-04-03T15:23:07.516Z,102389.09
2023-04-03T15:25:44.443Z,102393.53
2023-04-03T15:28:30.585Z,102390.66
2023-04-03T15:30:58.772Z,102381.16
2023-04-03T15:33:27.142Z,102380.44
2023-04-03T15:36:02.667Z,102380.47
2023-04-03T15:38:35.993Z,102386.81
2023-04-03T15:41:03.477Z,102377.94
2023-04-03T15:43:31.255Z,102375.34
2023-04-03T15:46:01.214Z,102380.75
2023-04-03T15:48:31.206Z,102374.53
2023-04-03T15:50:59.332Z,102367.41
2023-04-03T15:53:29.497Z,102366.69
2023-04-03T15:56:01.084Z,102359.31
2023-04-03T15:58:29.967Z,102365.59
2023-04-03T16:01:00.283Z,102355.22
2023-04-03T16:03:31.792Z,102363.28
2023-04-03T16:06:00.489Z,102358.75
2023-04-03T16:08:38.218Z,102367.00
2023-04-03T16:11:11.016Z,102359.13
2023-04-03T16:13:42.487Z,102353.91
2023-04-03T16:16:10.463Z,102353.91
2023-04-03T16:18:38.353Z,102354.88
2023-04-03T16:21:08.111Z,102355.63
2023-04-03T16:23:36.187Z,102348.00
2023-04-03T16:26:03.389Z,102341.66
2023-04-03T16:28:30.645Z,102352.50
2023-04-03T16:30:58.295Z,102347.41
2023-04-03T16:33:26.179Z,102344.28
2023-04-03T16:35:53.565Z,102341.25
2023-04-03T16:38:21.093Z,102330.06
2023-04-03T16:40:48.176Z,102328.66
2023-04-03T16:43:16.186Z,102328.38
2023-04-03T16:45:43.772Z,102329.25
2023-04-03T16:48:11.930Z,102328.41
2023-04-03T16:50:39.268Z,102327.31
2023-04-03T16:53:09.562Z,102317.47
2023-04-03T16:55:37.281Z,102317.38
2023-04-03T16:58:04.315Z,102325.25
2023-04-03T17:00:32.577Z,102326.78
2023-04-03T17:02:59.790Z,102311.66
2023-04-03T17:05:27.113Z,102313.94
2023-04-03T17:07:54.650Z,102316.56
2023-04-03T17:10:22.010Z,102310.16
2023-04-03T17:12:49.068Z,102324.97
2023-04-03T17:15:19.317Z,102314.22
2023-04-03T17:17:46.436Z,102316.69
2023-04-03T17:20:13.781Z,102312.97
2023-04-03T17:22:41.052Z,102323.38
2023-04-03T17:25:08.606Z,102317.81
2023-04-03T17:27:35.670Z,102317.53
2023-04-03T17:30:02.888Z,102317.19
2023-04-03T17:32:30.173Z,102315.41
2023-04-03T17:34:57.645Z,102311.63
2023-04-03T17:37:24.828Z,102314.81
2023-04-03T17:39:51.925Z,102312.72
2023-04-03T17:42:19.664Z,102302.66
2023-04-03T17:44:47.072Z,102306.53
2023-04-03T17:47:14.138Z,102311.09
2023-04-03T17:49:41.345Z,102307.00
2023-04-03T17:52:08.382Z,102307.50
2023-04-03T17:54:35.462Z,102308.84
2023-04-03T17:57:05.014Z,102306.72
2023-04-03T17:59:32.345Z,102303.84
2023-04-03T18:01:59.536Z,102304.44
2023-04-03T18:04:30.111Z,102308.56
2023-04-03T18:06:57.547Z,102303.03
2023-04-03T18:09:30.811Z,102304.53
2023-04-03T18:11:58.816Z,102312.03
2023-04-03T18:14:28.400Z,102310.84
2023-04-03T18:16:57.745Z,102304.44
2023-04-03T18:19:26.659Z,102299.75
2023-04-03T18:22:03.297Z,102303.06
2023-04-03T18:24:33.666Z,102297.63
2023-04-03T18:27:05.113Z,102302.78
2023-04-03T18:29:36.641Z,102311.47
2023-04-03T18:32:05.279Z,102304.34
2023-04-03T18:34:33.054Z,102303.28
2023-04-03T18:37:00.683Z,102311.28
2023-04-03T18:39:28.247Z,102307.59
2023-04-03T18:41:57.920Z,102305.00
2023-04-03T18:44:27.104Z,102306.88
2023-04-03T18:46:57.167Z,102314.13
2023-04-03T18:49:24.696Z,102308.88
2023-04-03T18:51:51.994Z,102315.88
2023-04-03T18:54:20.940Z,102322.75
2023-04-03T18:56:48.213Z,102327.16
2023-04-03T18:59:15.516Z,102320.91
2023-04-03T19:01:42.707Z,102321.56
2023-04-03T19:04:09.953Z,102318.91
2023-04-03T19:06:38.030Z,102324.78
2023-04-03T19:09:07.139Z,102328.03
2023-04-03T19:11:34.684Z,102325.06
2023-04-03T19:14:10.107Z,102327.38
2023-04-03T19:16:41.681Z,102332.25
2023-04-03T19:19:09.364Z,102327.56
2023-04-03T19:21:41.737Z,102330.84
2023-04-03T19:24:14.122Z,102337.63
2023-04-03T19:26:43.193Z,102337.50
2023-04-03T19:29:11.352Z,102331.06
2023-04-03T19:31:39.412Z,102330.03
2023-04-03T19:34:07.676Z,102327.22
2023-04-03T19:36:37.216Z,102324.47
2023-04-03T19:39:05.916Z,102324.31
2023-04-03T19:41:35.721Z,102327.69
2023-04-03T19:44:04.653Z,102319.72
2023-04-03T19:46:32.125Z,102324.06
2023-04-03T19:48:59.448Z,102328.47
2023-04-03T19:51:27.142Z,102336.38
2023-04-03T19:53:54.799Z,102330.97
2023-04-03T19:56:22.965Z,102337.13
2023-04-03T19:58:57.737Z,102344.13
2023-04-03T20:01:28.441Z,102340.78
2023-04-03T20:03:56.915Z,102338.09
2023-04-03T20:06:26.466Z,102338.16
2023-04-03T20:08:54.305Z,102345.28
2023-04-03T20:11:22.001Z,102337.28
2023-04-03T20:13:52.437Z,102340.91
2023-04-03T20:16:26.196Z,102334.63
2023-04-03T20:19:04.244Z,102340.78
2023-04-03T20:21:37.766Z,102348.78
2023-04-03T20:24:10.014Z,102341.69
2023-04-03T20:26:42.930Z,102341.69
2023-04-03T20:29:10.172Z,102338.25
2023-04-03T20:31:42.686Z,102339.19
2023-04-03T20:34:10.025Z,102339.03
2023-04-03T20:36:38.006Z,102338.16
2023-04-03T20:39:05.370Z,102339.91
2023-04-03T20:41:36.006Z,102335.69
2023-04-03T20:44:03.512Z,102343.84
2023-04-03T20:46:49.083Z,102344.09
2023-04-03T20:49:19.803Z,102343.38
2023-04-03T20:51:47.230Z,102345.63
2023-04-03T20:54:15.311Z,102346.06
2023-04-03T20:56:47.772Z,102342.91
2023-04-03T20:59:16.024Z,102348.31
2023-04-03T21:01:46.405Z,102342.41
2023-04-03T21:04:43.695Z,102353.19
2023-04-03T21:07:48.480Z,102342.13
2023-04-03T21:10:53.874Z,102347.59
2023-04-03T21:14:01.472Z,102349.63
2023-04-03T21:16:28.691Z,102354.16
2023-04-03T21:19:23.438Z,102346.31
2023-04-03T21:21:53.495Z,102342.88
2023-04-03T21:24:20.973Z,102346.59
2023-04-03T21:26:48.559Z,102348.47
2023-04-03T21:29:16.238Z,102350.34
2023-04-03T21:32:05.043Z,102347.03
2023-04-03T21:34:33.076Z,102358.59
2023-04-03T21:37:05.933Z,102347.13
2023-04-03T21:39:33.817Z,102349.97
2023-04-03T21:42:01.231Z,102349.16
2023-04-03T21:44:28.893Z,102351.84
2023-04-03T21:46:57.909Z,102351.16
2023-04-03T21:49:26.401Z,102347.69
2023-04-03T21:51:53.567Z,102340.66
2023-04-03T21:54:20.989Z,102349.56
2023-04-03T21:56:52.770Z,102333.72
2023-04-03T21:59:20.967Z,102337.47
2023-04-03T22:01:48.240Z,102338.47
2023-04-03T22:04:17.109Z,102346.50
2023-04-03T22:06:45.087Z,102341.19
2023-04-03T22:09:12.770Z,102336.00
2023-04-03T22:11:46.302Z,102343.19
2023-04-03T22:14:13.407Z,102333.47
2023-04-03T22:16:40.987Z,102334.56
2023-04-03T22:19:08.231Z,102333.75
2023-04-03T22:21:37.233Z,102332.03
2023-04-03T22:24:04.915Z,102334.81
2023-04-03T22:26:31.936Z,102336.69
2023-04-03T22:28:59.196Z,102326.03
2023-04-03T22:31:27.565Z,102326.91
2023-04-03T22:33:55.365Z,102331.38
2023-04-03T22:36:22.720Z,102331.50
2023-04-03T22:38:49.964Z,102321.00
2023-04-03T22:41:17.032Z,102322.00
2023-04-03T22:43:44.149Z,102322.78
2023-04-03T22:46:11.440Z,102334.97
2023-04-03T22:48:41.346Z,102324.88
2023-04-03T22:51:08.964Z,102326.03
2023-04-03T22:53:37.773Z,102326.28
2023-04-03T22:56:11.490Z,102328.16
2023-04-03T22:58:39.408Z,102322.28
2023-04-03T23:01:11.597Z,102322.56
2023-04-03T23:03:41.747Z,102317.38
2023-04-03T23:06:10.021Z,102323.72
2023-04-03T23:08:41.174Z,102317.72
2023-04-03T23:11:09.891Z,102320.50
2023-04-03T23:13:37.120Z,102317.13
2023-04-03T23:16:05.057Z,102317.31
2023-04-03T23:18:33.128Z,102312.09
2023-04-03T23:21:01.844Z,102312.22
2023-04-03T23:23:29.379Z,102314.09
2023-04-03T23:25:59.447Z,102323.00
2023-04-03T23:28:27.583Z,102320.50
2023-04-03T23:30:59.849Z,102316.19
2023-04-03T23:33:26.884Z,102318.97
2023-04-03T23:35:54.041Z,102316.47
2023-04-03T23:38:21.413Z,102312.13
2023-04-03T23:40:48.618Z,102310.44
2023-04-03T23:43:15.980Z,102299.97
2023-04-03T23:45:45.193Z,102303.66
2023-04-03T23:48:12.164Z,102304.56
2023-04-03T23:50:39.476Z,102302.78
2023-04-03T23:53:06.854Z,102311.03
2023-04-03T23:55:33.839Z,102301.38
2023-04-03T23:58:00.996Z,102301.50
